TRA86P LGKR-EHAM
Flight info
| Callsign | TRA86P |
|---|---|
| Flight time | N/A |
| Altitude | 38000 |
| Route | LGKR/34 OLGAT DCT ABADI DCT CRAYE DCT GISAM DCT KOTOR DCT GORPA DCT SIMBA DCT GASKA DCT MAPOX DCT NORKU |
| Aircraft | B738/M-SDE2E3FGHIJ1RWXYZ/LB1 |
Departure
| Time | N/A |
|---|---|
| Airport | Corfu Ioannis Kapodistrias International Airport (LGKR) |
Arrival
| Time | 2026-05-03 20:40 |
|---|---|
| Airport | Amsterdam Airport Schiphol (EHAM) |
| Time | Latitude | Longitude | Altitude | Speed | Heading |
|---|---|---|---|---|---|
| 2026-05-03 20:15 | 52.07138 | 7.22961 | 28200 ft | 379 kts | 306° |
| 2026-05-03 20:15 | 52.09526 | 7.18786 | 27662 ft | 375 kts | 306° |
| 2026-05-03 20:15 | 52.10699 | 7.16734 | 27402 ft | 373 kts | 306° |
| 2026-05-03 20:15 | 52.12456 | 7.13654 | 27014 ft | 370 kts | 306° |
| 2026-05-03 20:16 | 52.14198 | 7.10598 | 26627 ft | 367 kts | 306° |
| 2026-05-03 20:16 | 52.15926 | 7.07561 | 26247 ft | 364 kts | 306° |
| 2026-05-03 20:16 | 52.17640 | 7.04547 | 25867 ft | 361 kts | 306° |
| 2026-05-03 20:16 | 52.19344 | 7.01548 | 25492 ft | 359 kts | 306° |
| 2026-05-03 20:17 | 52.21035 | 6.98569 | 25120 ft | 357 kts | 306° |
| 2026-05-03 20:17 | 52.22672 | 6.95559 | 24749 ft | 352 kts | 303° |
| 2026-05-03 20:17 | 52.24217 | 6.92484 | 24387 ft | 349 kts | 302° |
| 2026-05-03 20:17 | 52.25733 | 6.89402 | 24043 ft | 348 kts | 302° |
| 2026-05-03 20:18 | 52.27243 | 6.86331 | 23669 ft | 346 kts | 303° |
| 2026-05-03 20:18 | 52.28753 | 6.83278 | 23261 ft | 345 kts | 303° |
| 2026-05-03 20:18 | 52.30262 | 6.80245 | 22844 ft | 343 kts | 303° |
| 2026-05-03 20:18 | 52.31758 | 6.77244 | 22466 ft | 339 kts | 303° |
| 2026-05-03 20:19 | 52.33244 | 6.74261 | 22118 ft | 336 kts | 303° |
| 2026-05-03 20:19 | 52.34712 | 6.71308 | 21752 ft | 333 kts | 303° |
| 2026-05-03 20:19 | 52.36165 | 6.68383 | 21391 ft | 330 kts | 303° |
| 2026-05-03 20:19 | 52.37607 | 6.65476 | 21036 ft | 328 kts | 303° |
| 2026-05-03 20:20 | 52.39038 | 6.62585 | 20685 ft | 325 kts | 303° |
| 2026-05-03 20:20 | 52.40436 | 6.59759 | 20342 ft | 323 kts | 303° |
| 2026-05-03 20:20 | 52.41843 | 6.56912 | 19999 ft | 320 kts | 303° |
| 2026-05-03 20:20 | 52.43241 | 6.54081 | 19668 ft | 318 kts | 303° |
| 2026-05-03 20:21 | 52.44629 | 6.51266 | 19326 ft | 316 kts | 304° |
| 2026-05-03 20:21 | 52.45997 | 6.48467 | 18995 ft | 313 kts | 301° |
| 2026-05-03 20:21 | 52.46892 | 6.45314 | 18655 ft | 302 kts | 279° |
| 2026-05-03 20:21 | 52.47204 | 6.41946 | 18325 ft | 297 kts | 272° |
| 2026-05-03 20:22 | 52.47369 | 6.38574 | 17947 ft | 296 kts | 271° |
| 2026-05-03 20:22 | 52.47509 | 6.35223 | 17575 ft | 294 kts | 271° |
| 2026-05-03 20:22 | 52.47650 | 6.31895 | 17232 ft | 292 kts | 271° |
| 2026-05-03 20:22 | 52.47797 | 6.28592 | 16911 ft | 289 kts | 271° |
| 2026-05-03 20:23 | 52.47949 | 6.25314 | 16579 ft | 287 kts | 271° |
| 2026-05-03 20:23 | 52.48104 | 6.22055 | 16250 ft | 285 kts | 271° |
| 2026-05-03 20:23 | 52.48259 | 6.18826 | 15918 ft | 283 kts | 271° |
| 2026-05-03 20:23 | 52.48413 | 6.15618 | 15604 ft | 281 kts | 272° |
| 2026-05-03 20:24 | 52.48568 | 6.12425 | 15290 ft | 280 kts | 272° |
| 2026-05-03 20:24 | 52.48721 | 6.09256 | 14964 ft | 278 kts | 272° |
| 2026-05-03 20:24 | 52.48872 | 6.06092 | 14660 ft | 277 kts | 272° |
| 2026-05-03 20:24 | 52.49021 | 6.02953 | 14347 ft | 276 kts | 272° |
| 2026-05-03 20:25 | 52.49170 | 5.99814 | 14028 ft | 275 kts | 272° |
| 2026-05-03 20:25 | 52.49317 | 5.96692 | 13714 ft | 274 kts | 272° |
| 2026-05-03 20:25 | 52.49463 | 5.93573 | 13357 ft | 274 kts | 272° |
| 2026-05-03 20:25 | 52.49608 | 5.90461 | 13019 ft | 273 kts | 272° |
| 2026-05-03 20:26 | 52.49752 | 5.87368 | 12695 ft | 271 kts | 272° |
| 2026-05-03 20:26 | 52.49894 | 5.84296 | 12379 ft | 270 kts | 272° |
| 2026-05-03 20:26 | 52.50033 | 5.81272 | 12073 ft | 268 kts | 272° |
| 2026-05-03 20:26 | 52.50171 | 5.78234 | 11769 ft | 266 kts | 272° |
| 2026-05-03 20:27 | 52.50308 | 5.75206 | 11463 ft | 265 kts | 272° |
| 2026-05-03 20:27 | 52.50444 | 5.72196 | 11155 ft | 264 kts | 272° |
| 2026-05-03 20:27 | 52.50579 | 5.69201 | 10848 ft | 263 kts | 272° |
| 2026-05-03 20:27 | 52.50713 | 5.66212 | 10545 ft | 262 kts | 272° |
| 2026-05-03 20:28 | 52.50845 | 5.63229 | 10233 ft | 262 kts | 272° |
| 2026-05-03 20:28 | 52.50975 | 5.60281 | 10069 ft | 255 kts | 272° |
| 2026-05-03 20:28 | 52.51102 | 5.57414 | 9930 ft | 248 kts | 272° |
| 2026-05-03 20:28 | 52.51175 | 5.54588 | 9673 ft | 250 kts | 269° |
| 2026-05-03 20:29 | 52.51200 | 5.51702 | 9433 ft | 255 kts | 269° |
| 2026-05-03 20:29 | 52.51217 | 5.48759 | 9171 ft | 261 kts | 269° |
| 2026-05-03 20:29 | 52.51234 | 5.45757 | 8919 ft | 265 kts | 269° |
| 2026-05-03 20:29 | 52.51253 | 5.42716 | 8642 ft | 266 kts | 269° |
| 2026-05-03 20:30 | 52.51273 | 5.39698 | 8372 ft | 262 kts | 269° |
| 2026-05-03 20:30 | 52.51293 | 5.36729 | 8112 ft | 259 kts | 269° |
| 2026-05-03 20:30 | 52.51313 | 5.33791 | 7862 ft | 255 kts | 269° |
| 2026-05-03 20:30 | 52.51333 | 5.30891 | 7615 ft | 254 kts | 269° |
| 2026-05-03 20:31 | 52.51351 | 5.28021 | 7459 ft | 250 kts | 269° |
| 2026-05-03 20:31 | 52.51369 | 5.25167 | 7217 ft | 249 kts | 269° |
| 2026-05-03 20:31 | 52.51387 | 5.22325 | 6983 ft | 249 kts | 269° |
| 2026-05-03 20:31 | 52.51404 | 5.19487 | 6742 ft | 249 kts | 268° |
| 2026-05-03 20:32 | 52.51420 | 5.16634 | 6500 ft | 250 kts | 268° |
| 2026-05-03 20:32 | 52.51436 | 5.13776 | 6249 ft | 251 kts | 269° |
| 2026-05-03 20:32 | 52.51451 | 5.10908 | 5985 ft | 251 kts | 268° |
| 2026-05-03 20:32 | 52.51465 | 5.08046 | 5725 ft | 251 kts | 268° |
| 2026-05-03 20:33 | 52.51479 | 5.05189 | 5465 ft | 250 kts | 269° |
| 2026-05-03 20:33 | 52.51492 | 5.02358 | 5077 ft | 246 kts | 268° |
| 2026-05-03 20:33 | 52.51505 | 4.99569 | 4663 ft | 242 kts | 269° |
| 2026-05-03 20:33 | 52.51516 | 4.96822 | 4170 ft | 241 kts | 269° |
| 2026-05-03 20:34 | 52.51527 | 4.94067 | 3765 ft | 245 kts | 269° |
| 2026-05-03 20:34 | 52.51537 | 4.91346 | 3588 ft | 231 kts | 269° |
| 2026-05-03 20:34 | 52.51547 | 4.88784 | 3391 ft | 220 kts | 269° |
| 2026-05-03 20:34 | 52.51556 | 4.86262 | 3084 ft | 221 kts | 269° |
| 2026-05-03 20:35 | 52.51563 | 4.83753 | 2853 ft | 219 kts | 269° |
| 2026-05-03 20:35 | 52.51570 | 4.81275 | 2731 ft | 213 kts | 269° |
| 2026-05-03 20:35 | 52.51576 | 4.78918 | 2663 ft | 204 kts | 269° |
| 2026-05-03 20:35 | 52.51582 | 4.76634 | 2525 ft | 198 kts | 269° |
| 2026-05-03 20:36 | 52.51392 | 4.74429 | 2284 ft | 196 kts | 242° |
| 2026-05-03 20:36 | 52.50442 | 4.72910 | 2092 ft | 194 kts | 202° |
| 2026-05-03 20:36 | 52.49148 | 4.72581 | 2081 ft | 182 kts | 190° |
| 2026-05-03 20:36 | 52.47910 | 4.72248 | 2024 ft | 178 kts | 190° |
| 2026-05-03 20:37 | 52.46680 | 4.72120 | 2031 ft | 177 kts | 185° |
| 2026-05-03 20:37 | 52.45433 | 4.72028 | 1879 ft | 180 kts | 186° |
| 2026-05-03 20:37 | 52.44191 | 4.71921 | 1656 ft | 177 kts | 186° |
| 2026-05-03 20:37 | 52.42972 | 4.71809 | 1403 ft | 174 kts | 186° |
| 2026-05-03 20:38 | 52.41808 | 4.71704 | 1174 ft | 161 kts | 186° |
| 2026-05-03 20:38 | 52.40715 | 4.71604 | 958 ft | 153 kts | 185° |
| 2026-05-03 20:38 | 52.39711 | 4.71513 | 751 ft | 139 kts | 186° |
| 2026-05-03 20:38 | 52.38756 | 4.71424 | 573 ft | 136 kts | 186° |
| 2026-05-03 20:39 | 52.37806 | 4.71354 | 386 ft | 137 kts | 184° |
| 2026-05-03 20:39 | 52.36856 | 4.71263 | 213 ft | 137 kts | 186° |
| 2026-05-03 20:39 | 52.35917 | 4.71174 | 47 ft | 138 kts | 185° |
| 2026-05-03 20:39 | 52.35000 | 4.71085 | -3 ft | 117 kts | 182° |
| 2026-05-03 20:40 | 52.34330 | 4.71027 | -5 ft | 74 kts | 184° |
| 2026-05-03 20:40 | 52.33976 | 4.70992 | -2 ft | 27 kts | 182° |
| 2026-05-03 20:40 | 52.33808 | 4.71054 | -2 ft | 24 kts | 157° |
| 2026-05-03 20:40 | 52.33659 | 4.71171 | -2 ft | 23 kts | 154° |
| 2026-05-03 20:41 | 52.33517 | 4.71235 | -2 ft | 20 kts | 182° |
| 2026-05-03 20:41 | 52.33382 | 4.71224 | -2 ft | 19 kts | 183° |
| 2026-05-03 20:41 | 52.33251 | 4.71230 | -2 ft | 19 kts | 144° |
| 2026-05-03 20:41 | 52.33157 | 4.71374 | -2 ft | 18 kts | 133° |
| 2026-05-03 20:42 | 52.33073 | 4.71524 | -2 ft | 18 kts | 131° |
| 2026-05-03 20:42 | 52.32995 | 4.71672 | -2 ft | 17 kts | 131° |
| 2026-05-03 20:42 | 52.32918 | 4.71815 | -2 ft | 16 kts | 131° |
| 2026-05-03 20:42 | 52.32848 | 4.71956 | -2 ft | 16 kts | 116° |
| 2026-05-03 20:43 | 52.32838 | 4.72127 | -2 ft | 15 kts | 86° |
| 2026-05-03 20:43 | 52.32811 | 4.72281 | -2 ft | 15 kts | 131° |
| 2026-05-03 20:43 | 52.32745 | 4.72402 | -2 ft | 14 kts | 132° |
| 2026-05-03 20:43 | 52.32681 | 4.72517 | -2 ft | 13 kts | 132° |
| 2026-05-03 20:44 | 52.32615 | 4.72617 | -2 ft | 13 kts | 141° |
| 2026-05-03 20:44 | 52.32545 | 4.72707 | -2 ft | 13 kts | 141° |
| 2026-05-03 20:44 | 52.32480 | 4.72810 | -2 ft | 14 kts | 140° |
| 2026-05-03 20:44 | 52.32392 | 4.72931 | -2 ft | 18 kts | 140° |
| 2026-05-03 20:45 | 52.32292 | 4.73067 | -2 ft | 19 kts | 140° |
| 2026-05-03 20:45 | 52.32197 | 4.73207 | -2 ft | 18 kts | 138° |
| 2026-05-03 20:45 | 52.32105 | 4.73341 | -2 ft | 17 kts | 138° |
| 2026-05-03 20:45 | 52.32055 | 4.73506 | -2 ft | 17 kts | 94° |
| 2026-05-03 20:46 | 52.32048 | 4.73694 | -2 ft | 16 kts | 93° |
| 2026-05-03 20:46 | 52.32042 | 4.73871 | -2 ft | 16 kts | 93° |
| 2026-05-03 20:46 | 52.32035 | 4.74056 | -3 ft | 16 kts | 93° |
| 2026-05-03 20:46 | 52.31980 | 4.74193 | -2 ft | 15 kts | 163° |
| 2026-05-03 20:47 | 52.31874 | 4.74193 | -2 ft | 15 kts | 181° |
| 2026-05-03 20:47 | 52.31775 | 4.74180 | -2 ft | 14 kts | 191° |
| 2026-05-03 20:47 | 52.31678 | 4.74164 | -2 ft | 15 kts | 185° |
| 2026-05-03 20:47 | 52.31544 | 4.74152 | -2 ft | 22 kts | 183° |
| 2026-05-03 20:48 | 52.31390 | 4.74136 | -2 ft | 22 kts | 184° |
| 2026-05-03 20:48 | 52.31238 | 4.74119 | -2 ft | 22 kts | 183° |
| 2026-05-03 20:48 | 52.31091 | 4.74111 | -2 ft | 21 kts | 182° |
| 2026-05-03 20:48 | 52.30948 | 4.74098 | -2 ft | 20 kts | 183° |
| 2026-05-03 20:49 | 52.30809 | 4.74085 | -2 ft | 20 kts | 183° |
| 2026-05-03 20:49 | 52.30675 | 4.74074 | -2 ft | 19 kts | 183° |
| 2026-05-03 20:49 | 52.30545 | 4.74062 | -2 ft | 18 kts | 184° |
| 2026-05-03 20:49 | 52.30420 | 4.74049 | -2 ft | 18 kts | 184° |
| 2026-05-03 20:50 | 52.30310 | 4.74108 | -2 ft | 17 kts | 135° |
| 2026-05-03 20:50 | 52.30228 | 4.74257 | 2 ft | 18 kts | 131° |
| 2026-05-03 20:50 | 52.30130 | 4.74424 | 8 ft | 22 kts | 134° |
| 2026-05-03 20:50 | 52.30019 | 4.74603 | 8 ft | 22 kts | 135° |
| 2026-05-03 20:51 | 52.29967 | 4.74840 | -2 ft | 25 kts | 90° |
| 2026-05-03 20:51 | 52.29904 | 4.75079 | -2 ft | 23 kts | 131° |
| 2026-05-03 20:51 | 52.29800 | 4.75273 | -2 ft | 22 kts | 129° |
| 2026-05-03 20:51 | 52.29806 | 4.75503 | -2 ft | 22 kts | 60° |
| 2026-05-03 20:52 | 52.29883 | 4.75709 | -2 ft | 21 kts | 58° |
| 2026-05-03 20:52 | 52.29960 | 4.75908 | -2 ft | 20 kts | 58° |
| 2026-05-03 20:52 | 52.30033 | 4.76099 | -2 ft | 19 kts | 58° |
| 2026-05-03 20:52 | 52.30104 | 4.76283 | -2 ft | 19 kts | 58° |
| 2026-05-03 20:53 | 52.30171 | 4.76461 | -2 ft | 18 kts | 58° |
| 2026-05-03 20:53 | 52.30235 | 4.76631 | -2 ft | 17 kts | 58° |
| 2026-05-03 20:53 | 52.30296 | 4.76793 | -2 ft | 16 kts | 56° |
| 2026-05-03 20:53 | 52.30358 | 4.76946 | -2 ft | 16 kts | 56° |
| 2026-05-03 20:54 | 52.30437 | 4.77042 | -2 ft | 15 kts | 346° |
| 2026-05-03 20:54 | 52.30541 | 4.76820 | -2 ft | 6 kts | 293° |
| 2026-05-03 20:54 | 52.30543 | 4.76811 | -2 ft | 0 kts | 293° |